Latest Weather Observations for Coober Pedy Airport

IDS60801

Issued at 8:05 pm CST Friday 18 April 2014 (issued every 30 minutes, with the page automatically refreshed every 10 minutes)

About weather observations | Map of weather stations | Latest weather observations for SA | Other Formats
Station Details ID: 016090 Name: COOBER PEDY AIRPORT Lat: -29.03 Lon: 134.72 Height: 225.0 m
Data from the previous 72 hours. | See also: Recent months at Coober Pedy Airport
Date/Time
CST
Temp
°C
App
Temp
°C
Dew
Point
Rel
Hum
%
Delta-T
°C
Wind Press
QNH
hPa
Press
MSL
hPa
Rain
since 9 am
mm
Dir
 
Spd
km/h
Gust
km/h
Spd
kts
Gust
kts
18/08:00pm 23.8 23.1 7.0 34 8.8 SE 0 0 0 0 1021.2 - 0.0
18/07:30pm 24.4 23.6 6.6 32 9.3 SSE 0 0 0 0 1021.1 - 0.0
18/07:00pm 25.2 24.9 8.7 35 9.0 CALM 0 0 0 0 1020.8 - 0.0
18/06:30pm 26.1 25.1 5.7 27 10.6 CALM 0 0 0 0 1020.6 - 0.0
18/06:00pm 27.3 25.4 5.0 24 11.5 S 4 7 2 4 1020.5 1019.7 0.0
18/05:30pm 27.8 24.3 5.4 24 11.7 S 13 17 7 9 1020.4 - 0.0
18/05:00pm 28.2 24.8 3.8 21 12.4 SE 11 17 6 9 1020.2 - 0.0
18/04:30pm 28.4 25.1 4.6 22 12.3 S 11 17 6 9 1020.2 - 0.0
18/04:00pm 28.7 24.7 4.9 22 12.4 ESE 15 24 8 13 1020.3 - 0.0
18/03:30pm 28.7 26.2 4.9 22 12.4 SSE 7 20 4 11 1020.4 - 0.0
18/03:00pm 28.6 25.9 5.5 23 12.1 SE 9 15 5 8 1020.5 1019.7 0.0
18/02:30pm 28.9 26.7 5.1 22 12.4 W 6 11 3 6 1020.6 - 0.0
18/02:00pm 28.3 25.1 5.2 23 12.1 SSE 11 17 6 9 1020.7 - 0.0
18/01:30pm 28.8 26.7 5.6 23 12.2 ESE 6 9 3 5 1021.1 - 0.0
18/01:00pm 28.4 26.3 6.5 25 11.7 WNW 7 13 4 7 1021.6 - 0.0
18/12:30pm 28.2 25.9 5.7 24 11.8 NNW 7 13 4 7 1022.1 - 0.0
18/12:00pm 27.2 24.3 4.9 24 11.5 WNW 9 15 5 8 1022.6 1021.8 0.0
18/11:30am 27.0 24.7 5.9 26 11.0 WNW 7 15 4 8 1022.9 - 0.0
18/11:00am 26.6 23.8 5.0 25 11.1 NW 9 15 5 8 1023.0 - 0.0
18/10:30am 25.7 23.3 5.3 27 10.5 NW 7 11 4 6 1023.0 - 0.0
18/10:00am 25.4 23.4 6.1 29 10.1 NNW 6 9 3 5 1023.2 - 0.0
18/09:30am 24.5 22.5 6.3 31 9.5 NE 6 7 3 4 1023.2 - 0.0
18/09:00am 23.0 20.9 6.7 35 8.4 SE 7 11 4 6 1023.3 1022.5 0.0
18/08:30am 21.9 20.3 8.1 41 7.3 SE 6 7 3 4 1023.1 - 0.0
18/08:00am 19.9 17.6 7.6 45 6.4 SSE 9 11 5 6 1022.7 - 0.0
18/07:30am 17.7 15.2 8.0 53 5.0 SE 11 13 6 7 1022.4 - 0.0
18/07:00am 16.4 13.4 7.6 56 4.5 SE 13 13 7 7 1022.0 - 0.0
18/06:30am 16.5 13.5 7.7 56 4.5 SE 13 15 7 8 1021.8 - 0.0
18/06:00am 17.1 14.0 7.2 52 5.0 S 13 15 7 8 1021.7 1021.0 0.0
18/05:30am 17.2 14.0 7.0 51 5.1 SSW 13 19 7 10 1021.6 - 0.0
18/05:00am 16.8 13.7 7.2 53 4.8 N 13 15 7 8 1021.1 - 0.0
18/04:30am 17.1 14.3 6.9 51 5.1 NNW 11 11 6 6 1021.0 - 0.0
18/04:00am 17.2 13.7 7.3 52 5.0 N 15 15 8 8 1020.9 - 0.0
18/03:30am 17.4 13.5 7.2 51 5.2 N 17 19 9 10 1020.8 - 0.0
18/03:00am 17.6 13.4 7.4 51 5.2 N 19 19 10 10 1020.9 1020.1 0.0
18/02:30am 17.8 13.6 7.5 51 5.3 NNE 19 20 10 11 1021.0 - 0.0
18/02:00am 17.7 13.9 7.7 52 5.1 N 17 17 9 9 1021.2 - 0.0
18/01:30am 18.1 14.8 8.1 52 5.2 N 15 17 8 9 1021.3 - 0.0
18/01:00am 18.7 15.4 8.1 50 5.5 NNE 15 17 8 9 1021.5 - 0.0
18/12:30am 18.7 15.4 8.1 50 5.5 NNE 15 15 8 8 1021.7 - 0.0
18/12:00am 19.2 15.5 7.9 48 5.8 NNE 17 17 9 9 1021.8 1021.1 0.0
 
Date/Time
CST
Temp
°C
App
Temp
°C
Dew
Point
Rel
Hum
%
Delta-T
°C
Wind Press
QNH
hPa
Press
MSL
hPa
Rain
since 9 am
mm
Dir
 
Spd
km/h
Gust
km/h
Spd
kts
Gust
kts
17/11:30pm 19.3 16.1 8.3 49 5.8 NE 15 15 8 8 1022.0 - 0.0
17/11:00pm 20.2 17.3 8.2 46 6.3 NE 13 13 7 7 1022.4 - 0.0
17/10:30pm 19.8 17.1 8.8 49 5.8 ENE 13 13 7 7 1022.4 - 0.0
17/10:00pm 20.3 17.4 8.3 46 6.3 ENE 13 15 7 8 1022.4 - 0.0
17/09:30pm 20.9 18.0 8.2 44 6.7 E 13 13 7 7 1022.4 - 0.0
17/09:00pm 21.7 19.1 7.9 41 7.2 E 11 11 6 6 1022.3 1021.5 0.0
17/08:30pm 22.0 19.7 7.4 39 7.6 E 9 11 5 6 1022.1 - 0.0
17/08:00pm 22.3 19.8 8.1 40 7.5 E 11 13 6 7 1021.8 - 0.0
17/07:30pm 22.9 20.2 7.4 37 8.2 E 11 13 6 7 1021.5 - 0.0
17/07:00pm 23.2 21.1 8.1 38 8.1 E 9 11 5 6 1021.2 - 0.0
17/06:30pm 24.3 21.9 7.0 33 9.1 ESE 9 11 5 6 1020.9 - 0.0
17/06:00pm 25.8 23.2 5.9 28 10.3 ESE 9 13 5 7 1020.6 1019.8 0.0
17/05:30pm 26.8 23.9 4.6 24 11.4 E 9 13 5 7 1020.4 - 0.0
17/05:00pm 27.1 23.7 4.2 23 11.7 SE 11 17 6 9 1020.0 - 0.0
17/04:30pm 27.2 23.7 3.7 22 11.9 E 11 15 6 8 1020.0 - 0.0
17/04:00pm 27.2 24.2 4.3 23 11.7 E 9 15 5 8 1020.1 - 0.0
17/03:30pm 27.3 24.0 4.4 23 11.7 NE 11 19 6 10 1020.1 - 0.0
17/03:00pm 26.7 24.0 3.9 23 11.5 SSE 7 15 4 8 1020.4 1019.6 0.0
17/02:30pm 26.9 24.3 4.0 23 11.6 S 7 15 4 8 1020.6 - 0.0
17/02:00pm 26.6 24.0 4.4 24 11.3 SE 7 13 4 7 1021.0 - 0.0
17/01:30pm 26.7 24.3 4.5 24 11.3 SE 6 11 3 6 1021.3 - 0.0
17/01:00pm 25.9 23.4 4.9 26 10.7 NE 7 11 4 6 1021.6 - 0.0
17/12:30pm 25.8 23.2 4.3 25 10.9 NE 7 13 4 7 1022.0 - 0.0
17/12:00pm 25.4 22.5 4.5 26 10.5 ENE 9 13 5 7 1022.7 1021.9 0.0
17/11:30am 25.5 23.1 5.1 27 10.5 NNE 7 11 4 6 1023.0 - 0.0
17/11:00am 24.6 21.4 4.9 28 10.0 N 11 13 6 7 1023.0 - 0.0
17/10:30am 23.9 20.5 5.8 31 9.3 NNE 13 15 7 8 1023.1 - 0.0
17/10:00am 22.9 19.4 5.3 32 8.9 NNE 13 17 7 9 1023.2 - 0.0
17/09:30am 22.0 18.6 5.8 35 8.2 N 13 17 7 9 1023.2 - 0.0
17/09:00am 20.6 16.9 6.5 40 7.2 NNE 15 17 8 9 1022.9 1022.1 0.0
17/08:30am 19.7 16.7 6.1 41 6.8 NNE 11 15 6 8 1022.7 - 0.0
17/08:00am 18.4 14.9 7.2 48 5.7 NNE 15 17 8 9 1022.5 - 0.0
17/07:30am 16.6 13.2 7.8 56 4.5 NNE 15 15 8 8 1022.0 - 0.0
17/07:00am 15.2 12.2 7.5 60 3.9 NNE 13 13 7 7 1021.7 - 0.0
17/06:30am 14.8 11.8 7.6 62 3.6 NE 13 13 7 7 1021.5 - 0.0
17/06:00am 15.3 12.2 7.3 59 4.0 NE 13 15 7 8 1021.2 1020.4 0.0
17/05:30am 14.8 12.2 7.6 62 3.6 NE 11 13 6 7 1021.0 - 0.0
17/05:00am 15.3 12.6 7.3 59 4.0 NNE 11 11 6 6 1020.7 - 0.0
17/04:30am 15.0 12.0 7.8 62 3.6 NE 13 15 7 8 1020.4 - 0.0
17/04:00am 15.4 12.3 7.4 59 4.0 NE 13 13 7 7 1020.3 - 0.0
17/03:30am 15.1 12.1 7.6 61 3.8 NE 13 13 7 7 1020.3 - 0.0
17/03:00am 15.4 12.3 7.4 59 4.0 NE 13 15 7 8 1020.4 1019.6 0.0
17/02:30am 16.8 13.9 6.6 51 5.1 ENE 11 13 6 7 1020.4 - 0.0
17/02:00am 16.8 13.7 7.2 53 4.8 E 13 15 7 8 1020.7 - 0.0
17/01:30am 17.7 14.1 6.9 49 5.4 E 15 15 8 8 1021.0 - 0.0
17/01:00am 17.4 14.5 8.3 55 4.7 E 13 15 7 8 1021.1 - 0.0
17/12:30am 18.1 15.2 8.1 52 5.2 E 13 13 7 7 1021.2 - 0.0
17/12:00am 18.2 15.4 8.7 54 5.0 ESE 13 13 7 7 1021.3 1020.5 0.0
 
Date/Time
CST
Temp
°C
App
Temp
°C
Dew
Point
Rel
Hum
%
Delta-T
°C
Wind Press
QNH
hPa
Press
MSL
hPa
Rain
since 9 am
mm
Dir
 
Spd
km/h
Gust
km/h
Spd
kts
Gust
kts
16/11:30pm 18.9 16.8 8.3 50 5.5 ESE 9 9 5 5 1021.3 - 0.0
16/11:00pm 19.0 16.9 8.4 50 5.5 ESE 9 9 5 5 1021.6 - 0.0
16/10:30pm 19.3 16.9 8.6 50 5.6 ESE 11 13 6 7 1021.6 - 0.0
16/10:00pm 19.7 17.2 8.4 48 5.9 ESE 11 11 6 6 1021.6 - 0.0
16/09:30pm 19.7 17.2 8.4 48 5.9 ESE 11 11 6 6 1021.4 - 0.0
16/09:00pm 20.0 18.0 8.7 48 6.0 SE 9 11 5 6 1021.2 1020.4 0.0
16/08:30pm 20.5 18.6 9.1 48 6.1 SE 9 11 5 6 1021.0 - 0.0
16/08:00pm 21.6 19.0 7.8 41 7.3 SSE 11 13 6 7 1020.8 - 0.0
16/07:30pm 21.9 19.8 8.4 42 7.2 SSE 9 11 5 6 1020.4 - 0.0
16/07:00pm 22.7 20.8 9.1 42 7.4 S 9 9 5 5 1020.1 - 0.0
16/06:30pm 23.7 21.4 7.3 35 8.6 S 9 11 5 6 1019.8 - 0.0
16/06:00pm 24.4 22.2 6.2 31 9.4 S 7 11 4 6 1019.5 1018.7 0.0
16/05:30pm 24.9 22.1 5.2 28 10.1 S 9 13 5 7 1019.4 - 0.0
16/05:00pm 25.4 22.4 6.1 29 10.1 S 11 15 6 8 1019.3 - 0.0
16/04:30pm 25.5 21.8 4.6 26 10.6 SSE 13 19 7 10 1019.4 - 0.0
16/04:00pm 25.3 21.8 5.5 28 10.2 S 13 20 7 11 1019.3 - 0.0
16/03:30pm 25.8 23.5 5.9 28 10.4 SSW 7 13 4 7 1019.4 - 0.0
16/03:00pm 25.5 23.3 6.2 29 10.1 ESE 7 13 4 7 1019.6 1018.8 0.0
16/02:30pm 25.1 22.9 6.3 30 9.8 SSW 7 19 4 10 1019.7 - 0.0
16/02:00pm 24.6 22.7 6.8 32 9.4 S 6 9 3 5 1020.0 - 0.0
16/01:30pm 24.3 21.8 6.6 32 9.2 S 9 13 5 7 1020.4 - 0.0
16/01:00pm 23.8 21.8 7.0 34 8.8 SSW 7 13 4 7 1020.9 - 0.0
16/12:30pm 23.9 22.0 7.5 35 8.7 W 7 15 4 8 1021.4 - 0.0
16/12:00pm 23.0 21.0 7.1 36 8.3 SW 7 13 4 7 1021.9 1021.2 0.0
16/11:30am 23.5 21.2 7.6 36 8.4 NE 9 13 5 7 1022.0 - 0.0
16/11:00am 22.7 19.8 8.0 39 7.8 NNE 13 19 7 10 1022.3 - 0.0
16/10:30am 21.9 18.4 7.3 39 7.6 NNE 15 17 8 9 1022.6 - 0.0
16/10:00am 21.5 18.7 8.4 43 7.0 NE 13 17 7 9 1022.5 - 0.0
16/09:30am 20.8 17.5 8.1 44 6.7 NE 15 19 8 10 1022.4 - 0.0
16/09:00am 19.7 16.5 8.4 48 5.9 ENE 15 17 8 9 1022.4 1021.6 0.0
16/08:30am 18.1 15.9 9.5 57 4.6 E 11 15 6 8 1022.1 - 0.0
16/08:00am 16.5 14.3 9.4 63 3.7 E 11 13 6 7 1022.0 - 0.0
16/07:30am 14.7 12.1 9.5 71 2.7 ESE 13 13 7 7 1021.7 - 0.0
16/07:00am 13.7 10.7 9.2 74 2.3 ESE 15 15 8 8 1021.5 - 0.0
16/06:30am 13.8 11.2 9.3 74 2.3 ESE 13 15 7 8 1021.3 - 0.0
16/06:00am 14.0 11.4 9.4 74 2.4 SE 13 13 7 7 1021.3 1020.5 0.0
16/05:30am 14.1 11.1 9.3 73 2.5 ESE 15 15 8 8 1021.0 - 0.0
16/05:00am 14.2 11.2 9.4 73 2.5 ESE 15 15 8 8 1020.7 - 0.0
16/04:30am 14.8 11.8 9.4 70 2.8 SE 15 17 8 9 1020.5 - 0.0
16/04:00am 14.9 12.0 9.7 71 2.7 ESE 15 17 8 9 1020.4 - 0.0
16/03:30am 14.8 12.0 10.0 73 2.5 ESE 15 15 8 8 1020.3 - 0.0
16/03:00am 15.3 12.6 10.3 72 2.6 ESE 15 17 8 9 1020.4 1019.6 0.0
16/02:30am 15.6 13.0 10.6 72 2.7 SE 15 17 8 9 1020.4 - 0.0
16/02:00am 15.9 13.3 10.7 71 2.8 SE 15 17 8 9 1020.7 - 0.0
16/01:30am 16.6 14.0 10.7 68 3.2 SE 15 17 8 9 1021.0 - 0.0
16/01:00am 16.8 14.2 10.6 67 3.3 SSE 15 17 8 9 1021.1 - 0.0
16/12:30am 16.4 13.8 10.7 69 3.1 S 15 15 8 8 1021.4 - 0.0
16/12:00am 16.6 14.5 11.1 70 3.0 S 13 17 7 9 1021.5 1020.8 0.0
 
Date/Time
CST
Temp
°C
App
Temp
°C
Dew
Point
Rel
Hum
%
Delta-T
°C
Wind Press
QNH
hPa
Press
MSL
hPa
Rain
since 9 am
mm
Dir
 
Spd
km/h
Gust
km/h
Spd
kts
Gust
kts
15/11:30pm 17.3 15.5 10.9 66 3.5 S 11 13 6 7 1021.3 - 0.0
15/11:00pm 17.5 15.6 10.6 64 3.7 S 11 11 6 6 1021.4 - 0.0
15/10:30pm 17.4 15.7 11.2 67 3.4 S 11 13 6 7 1021.6 - 0.0
15/10:00pm 17.7 16.3 11.0 65 3.7 SSW 9 11 5 6 1021.6 - 0.0
15/09:30pm 18.3 17.1 10.4 60 4.3 SSE 7 9 4 5 1021.5 - 0.0
15/09:00pm 19.0 16.9 9.8 55 4.9 SSE 11 13 6 7 1021.1 1020.3 0.0
15/08:30pm 19.2 17.2 10.2 56 4.9 SSE 11 13 6 7 1020.9 - 0.0

Other Formats:

Comma delimited format used in spreadsheet applications
http://www.bom.gov.au/fwo/IDS60801/IDS60801.95458.axf

JavaScript Object Notation format (JSON) in row-major order
http://www.bom.gov.au/fwo/IDS60801/IDS60801.95458.json